Time,TemperatureF,DewpointF,PressureIn,WindDirection,WindDirectionDegrees,WindSpeedMPH,WindSpeedGustMPH,Humidity,HourlyPrecipIn,Conditions,Clouds,dailyrainin,SoftwareType,DateUTC
2013-02-01 00:12:00,34.9,30.0,30.12,West,266,0.0,0.0,81,0.00,,,0.00,weatherlink.com 1.10,2013-02-01 06:12:00,
2013-02-01 00:27:00,34.8,30.0,30.12,West,266,0.0,0.0,81,0.00,,,0.00,weatherlink.com 1.10,2013-02-01 06:27:00,
2013-02-01 00:42:00,34.5,30.0,30.13,West,266,0.0,0.0,82,0.00,,,0.00,weatherlink.com 1.10,2013-02-01 06:42:00,
2013-02-01 00:56:00,34.3,30.0,30.14,West,266,0.0,0.0,83,0.00,,,0.00,weatherlink.com 1.10,2013-02-01 06:56:00,
2013-02-01 01:12:00,34.0,30.0,30.16,West,266,0.0,0.0,86,0.00,,,0.00,weatherlink.com 1.10,2013-02-01 07:12:00,
2013-02-01 01:27:00,34.0,30.0,30.16,WSW,258,1.0,3.0,84,0.00,,,0.00,weatherlink.com 1.10,2013-02-01 07:27:00,
2013-02-01 01:42:00,37.9,31.0,30.16,West,261,4.0,6.0,77,0.00,,,0.00,weatherlink.com 1.10,2013-02-01 07:42:00,
2013-02-01 01:57:00,40.0,32.0,30.16,WNW,288,0.0,4.0,72,0.00,,,0.00,weatherlink.com 1.10,2013-02-01 07:57:00,
2013-02-01 02:12:00,40.1,32.0,30.16,WNW,292,1.0,7.0,72,0.00,,,0.00,weatherlink.com 1.10,2013-02-01 08:12:00,
2013-02-01 02:27:00,40.2,32.0,30.16,NNW,328,2.0,3.0,72,0.00,,,0.00,weatherlink.com 1.10,2013-02-01 08:27:00,
2013-02-01 02:42:00,39.9,32.0,30.16,WNW,302,0.0,2.0,73,0.00,,,0.00,weatherlink.com 1.10,2013-02-01 08:42:00,
2013-02-01 02:57:00,39.4,32.0,30.16,NW,321,0.0,3.0,75,0.00,,,0.00,weatherlink.com 1.10,2013-02-01 08:57:00,
2013-02-01 03:12:00,39.6,33.0,30.18,North,355,2.0,11.0,76,0.00,,,0.00,weatherlink.com 1.10,2013-02-01 09:12:00,
2013-02-01 03:27:00,40.4,33.0,30.19,NW,323,2.0,21.0,74,0.00,,,0.00,weatherlink.com 1.10,2013-02-01 09:27:00,
2013-02-01 03:42:00,40.2,33.0,30.19,NW,324,3.0,14.0,76,0.00,,,0.00,weatherlink.com 1.10,2013-02-01 09:42:00,
2013-02-01 03:57:00,39.3,32.0,30.20,NNW,342,3.0,14.0,76,0.00,,,0.00,weatherlink.com 1.10,2013-02-01 09:57:00,
2013-02-01 04:12:00,36.9,20.0,30.22,WNW,292,1.0,19.0,51,0.00,,,0.00,weatherlink.com 1.10,2013-02-01 10:12:00,
2013-02-01 04:42:00,34.2,19.0,30.24,North,360,6.0,18.0,53,0.00,,,0.00,weatherlink.com 1.10,2013-02-01 10:42:00,
2013-02-01 04:57:00,33.2,21.0,30.25,North,355,5.0,9.0,60,0.00,,,0.00,weatherlink.com 1.10,2013-02-01 10:57:00,
2013-02-01 05:12:00,32.5,21.0,30.26,North,360,5.0,7.0,62,0.00,,,0.00,weatherlink.com 1.10,2013-02-01 11:12:00,
2013-02-01 05:27:00,32.0,22.0,30.27,NNW,327,1.0,7.0,66,0.00,,,0.00,weatherlink.com 1.10,2013-02-01 11:27:00,
2013-02-01 05:42:00,30.9,21.0,30.28,WNW,290,1.0,5.0,68,0.00,,,0.00,weatherlink.com 1.10,2013-02-01 11:42:00,
2013-02-01 05:57:00,30.7,21.0,30.29,NNW,331,2.0,7.0,68,0.00,,,0.00,weatherlink.com 1.10,2013-02-01 11:57:00,
2013-02-01 06:13:00,30.3,21.0,30.30,NW,305,2.0,9.0,69,0.00,,,0.00,weatherlink.com 1.10,2013-02-01 12:13:00,
2013-02-01 06:27:00,30.0,22.0,30.31,NW,320,0.0,9.0,72,0.00,,,0.00,weatherlink.com 1.10,2013-02-01 12:27:00,
2013-02-01 06:43:00,29.5,22.0,30.32,NNE,24,3.0,9.0,73,0.00,,,0.00,weatherlink.com 1.10,2013-02-01 12:43:00,
2013-02-01 06:58:00,29.4,22.0,30.32,NNW,333,1.0,5.0,73,0.00,,,0.00,weatherlink.com 1.10,2013-02-01 12:58:00,
2013-02-01 07:13:00,29.3,21.0,30.33,NW,305,3.0,8.0,71,0.00,,,0.00,weatherlink.com 1.10,2013-02-01 13:13:00,
2013-02-01 07:28:00,29.2,20.0,30.34,WNW,284,2.0,11.0,68,0.00,,,0.00,weatherlink.com 1.10,2013-02-01 13:28:00,
2013-02-01 07:43:00,29.2,18.0,30.35,North,349,6.0,14.0,64,0.00,,,0.00,weatherlink.com 1.10,2013-02-01 13:43:00,
2013-02-01 07:58:00,29.2,17.0,30.36,NE,37,1.0,11.0,61,0.00,,,0.00,weatherlink.com 1.10,2013-02-01 13:58:00,
2013-02-01 08:13:00,29.3,18.0,30.36,North,11,2.0,12.0,64,0.00,,,0.00,weatherlink.com 1.10,2013-02-01 14:13:00,
2013-02-01 08:28:00,29.3,19.0,30.37,NNW,342,1.0,12.0,66,0.00,,,0.00,weatherlink.com 1.10,2013-02-01 14:28:00,
2013-02-01 08:43:00,29.4,19.0,30.38,NW,322,0.0,12.0,65,0.00,,,0.00,weatherlink.com 1.10,2013-02-01 14:43:00,
2013-02-01 08:58:00,29.7,19.0,30.38,NW,313,2.0,13.0,65,0.00,,,0.00,weatherlink.com 1.10,2013-02-01 14:58:00,
2013-02-01 09:13:00,30.2,20.0,30.39,NNE,32,1.0,7.0,66,0.00,,,0.00,weatherlink.com 1.10,2013-02-01 15:13:00,
2013-02-01 09:28:00,30.7,20.0,30.39,North,360,1.0,10.0,64,0.00,,,0.00,weatherlink.com 1.10,2013-02-01 15:28:00,
2013-02-01 09:43:00,31.6,19.0,30.40,ENE,57,0.0,12.0,61,0.00,,,0.00,weatherlink.com 1.10,2013-02-01 15:43:00,
2013-02-01 09:58:00,32.8,18.0,30.40,ESE,104,1.0,7.0,54,0.00,,,0.00,weatherlink.com 1.10,2013-02-01 15:58:00,
2013-02-01 10:13:00,33.0,15.0,30.40,West,261,4.0,9.0,48,0.00,,,0.00,weatherlink.com 1.10,2013-02-01 16:13:00,
2013-02-01 10:28:00,32.9,14.0,30.41,NNE,19,3.0,13.0,45,0.00,,,0.00,weatherlink.com 1.10,2013-02-01 16:28:00,
2013-02-01 10:43:00,33.7,15.0,30.40,East,80,0.0,9.0,46,0.00,,,0.00,weatherlink.com 1.10,2013-02-01 16:43:00,
2013-02-01 10:58:00,33.9,13.0,30.40,NE,34,1.0,11.0,42,0.00,,,0.00,weatherlink.com 1.10,2013-02-01 16:58:00,
2013-02-01 11:13:00,34.1,13.0,30.40,NW,320,2.0,9.0,41,0.00,,,0.00,weatherlink.com 1.10,2013-02-01 17:13:00,
2013-02-01 11:28:00,35.0,13.0,30.40,SW,223,1.0,11.0,40,0.00,,,0.00,weatherlink.com 1.10,2013-02-01 17:28:00,
2013-02-01 11:43:00,35.8,14.0,30.39,North,351,2.0,8.0,41,0.00,,,0.00,weatherlink.com 1.10,2013-02-01 17:43:00,
2013-02-01 11:58:00,35.6,14.0,30.39,NE,44,5.0,9.0,41,0.00,,,0.00,weatherlink.com 1.10,2013-02-01 17:58:00,
2013-02-01 12:13:00,36.0,15.0,30.38,ESE,107,1.0,9.0,43,0.00,,,0.00,weatherlink.com 1.10,2013-02-01 18:13:00,
2013-02-01 12:28:00,36.8,14.0,30.38,West,281,1.0,7.0,40,0.00,,,0.00,weatherlink.com 1.10,2013-02-01 18:28:00,
2013-02-01 12:43:00,37.4,14.0,30.37,WNW,302,4.0,7.0,39,0.00,,,0.00,weatherlink.com 1.10,2013-02-01 18:43:00,
2013-02-01 12:58:00,37.4,16.0,30.37,NNW,340,4.0,6.0,42,0.00,,,0.00,weatherlink.com 1.10,2013-02-01 18:58:00,
2013-02-01 13:13:00,37.5,16.0,30.38,West,274,0.0,9.0,41,0.00,,,0.00,weatherlink.com 1.10,2013-02-01 19:13:00,
2013-02-01 13:28:00,38.8,15.0,30.37,WNW,292,1.0,5.0,38,0.00,,,0.00,weatherlink.com 1.10,2013-02-01 19:28:00,
2013-02-01 13:44:00,38.2,14.0,30.37,WSW,246,0.0,6.0,37,0.00,,,0.00,weatherlink.com 1.10,2013-02-01 19:44:00,
2013-02-01 13:58:00,38.7,15.0,30.36,North,351,3.0,5.0,38,0.00,,,0.00,weatherlink.com 1.10,2013-02-01 19:58:00,
2013-02-01 14:14:00,38.7,13.0,30.36,North,350,2.0,8.0,35,0.00,,,0.00,weatherlink.com 1.10,2013-02-01 20:14:00,
2013-02-01 14:28:00,38.7,14.0,30.36,NW,321,1.0,6.0,37,0.00,,,0.00,weatherlink.com 1.10,2013-02-01 20:28:00,
2013-02-01 14:43:00,37.9,11.0,30.36,NNW,327,1.0,5.0,33,0.00,,,0.00,weatherlink.com 1.10,2013-02-01 20:43:00,
2013-02-01 14:58:00,38.1,8.0,30.35,NW,319,0.0,9.0,29,0.00,,,0.00,weatherlink.com 1.10,2013-02-01 20:58:00,
2013-02-01 15:13:00,38.2,9.0,30.35,NE,47,0.0,5.0,30,0.00,,,0.00,weatherlink.com 1.10,2013-02-01 21:13:00,
2013-02-01 15:28:00,38.8,12.0,30.35,NNE,12,0.0,8.0,33,0.00,,,0.00,weatherlink.com 1.10,2013-02-01 21:28:00,
2013-02-01 15:43:00,39.0,13.0,30.36,NNW,340,0.0,6.0,34,0.00,,,0.00,weatherlink.com 1.10,2013-02-01 21:43:00,
2013-02-01 15:58:00,39.3,15.0,30.36,WNW,288,1.0,6.0,37,0.00,,,0.00,weatherlink.com 1.10,2013-02-01 21:58:00,
2013-02-01 16:13:00,38.5,14.0,30.36,North,360,4.0,5.0,36,0.00,,,0.00,weatherlink.com 1.10,2013-02-01 22:13:00,
2013-02-01 16:28:00,37.8,13.0,30.36,North,11,1.0,8.0,36,0.00,,,0.00,weatherlink.com 1.10,2013-02-01 22:28:00,
2013-02-01 16:58:00,36.4,15.0,30.35,NW,315,0.0,3.0,41,0.00,,,0.00,weatherlink.com 1.10,2013-02-01 22:58:00,
2013-02-01 17:13:00,35.5,18.0,30.36,NW,326,0.0,2.0,49,0.00,,,0.00,weatherlink.com 1.10,2013-02-01 23:13:00,
2013-02-01 17:28:00,33.8,18.0,30.36,NW,326,0.0,0.0,52,0.00,,,0.00,weatherlink.com 1.10,2013-02-01 23:28:00,
2013-02-01 17:43:00,32.3,20.0,30.36,NW,326,0.0,0.0,61,0.00,,,0.00,weatherlink.com 1.10,2013-02-01 23:43:00,
2013-02-01 17:59:00,31.1,19.0,30.36,NW,326,0.0,0.0,62,0.00,,,0.00,weatherlink.com 1.10,2013-02-01 23:59:00,
2013-02-01 18:14:00,30.2,20.0,30.36,NW,326,0.0,0.0,66,0.00,,,0.00,weatherlink.com 1.10,2013-02-02 00:14:00,
2013-02-01 18:29:00,29.7,20.0,30.36,NW,326,0.0,0.0,67,0.00,,,0.00,weatherlink.com 1.10,2013-02-02 00:29:00,
2013-02-01 18:44:00,29.1,20.0,30.36,NW,326,0.0,0.0,70,0.00,,,0.00,weatherlink.com 1.10,2013-02-02 00:44:00,
2013-02-01 18:58:00,28.5,20.0,30.36,NW,326,0.0,0.0,70,0.00,,,0.00,weatherlink.com 1.10,2013-02-02 00:58:00,
2013-02-01 19:13:00,28.1,20.0,30.36,NW,326,0.0,0.0,71,0.00,,,0.00,weatherlink.com 1.10,2013-02-02 01:13:00,
2013-02-01 19:28:00,27.9,19.0,30.36,NW,326,0.0,0.0,69,0.00,,,0.00,weatherlink.com 1.10,2013-02-02 01:28:00,
2013-02-01 19:44:00,27.4,20.0,30.36,NW,326,0.0,0.0,73,0.00,,,0.00,weatherlink.com 1.10,2013-02-02 01:44:00,
2013-02-01 19:59:00,27.2,19.0,30.36,NW,326,0.0,0.0,72,0.00,,,0.00,weatherlink.com 1.10,2013-02-02 01:59:00,
2013-02-01 20:14:00,27.0,19.0,30.36,NW,326,0.0,0.0,72,0.00,,,0.00,weatherlink.com 1.10,2013-02-02 02:14:00,
2013-02-01 20:29:00,26.6,19.0,30.36,NW,326,0.0,0.0,74,0.00,,,0.00,weatherlink.com 1.10,2013-02-02 02:29:00,
2013-02-01 20:44:00,26.4,20.0,30.36,NW,326,0.0,0.0,77,0.00,,,0.00,weatherlink.com 1.10,2013-02-02 02:44:00,
2013-02-01 20:59:00,26.1,20.0,30.36,NW,326,0.0,0.0,78,0.00,,,0.00,weatherlink.com 1.10,2013-02-02 02:59:00,
2013-02-01 21:14:00,25.9,20.0,30.36,NW,326,0.0,0.0,78,0.00,,,0.00,weatherlink.com 1.10,2013-02-02 03:14:00,
2013-02-01 21:29:00,25.7,20.0,30.36,NW,326,0.0,0.0,80,0.00,,,0.00,weatherlink.com 1.10,2013-02-02 03:29:00,
2013-02-01 21:44:00,25.5,20.0,30.37,NW,326,0.0,0.0,79,0.00,,,0.00,weatherlink.com 1.10,2013-02-02 03:44:00,
2013-02-01 21:59:00,25.4,20.0,30.37,NW,326,0.0,0.0,80,0.00,,,0.00,weatherlink.com 1.10,2013-02-02 03:59:00,
2013-02-01 22:14:00,25.1,20.0,30.38,NW,326,0.0,0.0,81,0.00,,,0.00,weatherlink.com 1.10,2013-02-02 04:14:00,
2013-02-01 22:29:00,25.0,20.0,30.36,NW,326,0.0,0.0,82,0.00,,,0.00,weatherlink.com 1.10,2013-02-02 04:29:00,
2013-02-01 22:44:00,24.7,20.0,30.37,NNW,327,0.0,0.0,82,0.00,,,0.00,weatherlink.com 1.10,2013-02-02 04:44:00,
2013-02-01 22:59:00,24.5,20.0,30.36,NNW,327,0.0,0.0,82,0.00,,,0.00,weatherlink.com 1.10,2013-02-02 04:59:00,
2013-02-01 23:14:00,24.3,20.0,30.35,NW,326,0.0,0.0,82,0.00,,,0.00,weatherlink.com 1.10,2013-02-02 05:14:00,
2013-02-01 23:29:00,24.1,19.0,30.35,NNW,327,0.0,0.0,81,0.00,,,0.00,weatherlink.com 1.10,2013-02-02 05:29:00,
2013-02-01 23:44:00,23.9,19.0,30.34,NW,326,0.0,0.0,82,0.00,,,0.00,weatherlink.com 1.10,2013-02-02 05:44:00,
2013-02-01 23:59:00,23.7,19.0,30.34,NW,326,0.0,0.0,83,0.00,,,0.00,weatherlink.com 1.10,2013-02-02 05:59:00,